Latest  Newer  Older  Last 2 hours animation  Current image  Latest image 
Rain/snow radar  Infrared sat images 
Real-time lightning map

All time is UTC (add 2 hours to UTC in wintertime, 3 hours to UTC in DST for Latvia local time)

2022/01/17 16:20 EVRA 171620Z 35022G33KT 9999 BLSN FEW035 00/M07 Q1004 NOSIG
2022/01/17 16:20 EVLA 171620Z AUTO 35014G25KT 320V040 9999 BKN041/// BKN047/// 02/M05 Q1010
2022/01/17 16:20 EVVA 171620Z AUTO 36021G31KT CAVOK 02/M06 Q1009
2022/01/17 16:20 EYKA 171620Z 34014G26KT 270V050 9999 BKN033 M00/M06 Q1002
2022/01/17 16:20 EYPA 171620Z 35014G26KT 320V020 9999 SCT044 02/M06 Q1010
2022/01/17 16:20 EYSA 171620Z 33023G33KT CAVOK M01/M06 Q1004 NOSIG
2022/01/17 16:20 EYVI 171620Z 33021G34KT 5000 -SHSN BLSN BKN009CB M01/M03 Q0997 NOSIG
2022/01/17 16:20 EEKA 171620Z 33025KT CAVOK 00/M06 Q1006
2022/01/17 16:20 EEKE 171620Z 35012KT CAVOK 00/M07 Q1007

2022/01/17 16:20 EETN 171620Z 33014G24KT 310V010 9999 DRSN NSC M01/M08 Q1002 TEMPO 33016G30KT
2022/01/17 16:20 EETU 171620Z AUTO 33016KT 300V360 9999 NCD M03/M08 Q0998 RESHUP REDZ
   RIGA AIRPORT     EVRA               56 55N  023 58E   10   X     T          6 LV
   LIEPAJA INTL     EVLA        26406  56 31N  021 06E    4   X                8 LV
   VENTPILS         EVVA               57 21N  021 33E    6   X                8 LV
   KAUNAS           EYKA               54 54N  023 55E   77   X     T          6 LT
   PALANGA INTL     EYPA               55 55N  021 03E   10   X                6 LT
   SIAULIAI INTL    EYSA               55 54N  023 24E  135   X     T          6 LT
   VILNIUS INTL     EYVI        26730  54 38N  025 17E  197   X     T          6 LT
   KARDLA           EEKA        26116  58 59N  022 50E    4   X                8 EE
   KURESSAARE       EEKE               58 14N  022 31E    4   X                8 EE
   PARNU            EEPU               58 25N  024 28E   14   X                8 EE
   TALLINN          EETN        26038  59 24N  024 49E   40   X     T          8 EE
   TARTU            EETU               58 19N  026 41E   67   X                8 EE

cloud coverage image from sat24.com and METAR data from weather.noaa.gov